KALS/ALS METAR and TAF weather

Enter ICAO airport designator
Station Type Date Time Source
KALS METAR 2019/10/16 18:52 UTC NOAA

KALS 161852Z AUTO VRB04KT 10SM CLR 16/M15 A3035 RMK AO2 SLP246 T01561150


Station Type Date Time Source
KALS Decoded METAR 2019/10/16 18:52 UTC NOAA

SAN LUIS VALLEY REGIONAL, CO, United States (KALS) 37-26N 105-52W 2299M
Oct 16, 2019 - 02:52 PM EDT / 2019.10.16 1852 UTC
Wind: Variable at 5 MPH (4 KT):0
Visibility: 10 mile(s):0
Sky conditions: clear
Temperature: 60.1 F (15.6 C)
Dew Point: 5.0 F (-15.0 C)
Relative Humidity: 10%
Pressure (altimeter): 30.35 in. Hg (1027 hPa)
ob: KALS 161852Z AUTO VRB04KT 10SM CLR 16/M15 A3035 RMK AO2 SLP246 T01561150
cycle: 19

Station Type Date Time Source
KALS TAF 2019/10/16 18:22 UTC NOAA

TAF KALS 161720Z 1618/1718 VRB05KT P6SM SKC

Example: see airport list